createdAt,value
2017-05-14T00:00:19.948Z,1015.24
2017-05-14T00:01:20.678Z,1015.2
2017-05-14T00:02:21.350Z,1015.2
2017-05-14T00:03:22.020Z,1015.22
2017-05-14T00:04:22.691Z,1015.24
2017-05-14T00:05:23.373Z,1015.33
2017-05-14T00:06:24.036Z,1015.29
2017-05-14T00:07:24.766Z,1015.3
2017-05-14T00:08:25.463Z,1015.32
2017-05-14T00:09:26.158Z,1015.35
2017-05-14T00:10:26.831Z,1015.33
2017-05-14T00:11:27.512Z,1015.33
2017-05-14T00:12:28.184Z,1015.32
2017-05-14T00:13:28.850Z,1015.34
2017-05-14T00:14:29.525Z,1015.36
2017-05-14T00:15:30.194Z,1015.41
2017-05-14T00:16:30.863Z,1015.37
2017-05-14T00:17:31.531Z,1015.39
2017-05-14T00:18:32.211Z,1015.39
2017-05-14T00:19:32.885Z,1015.43
2017-05-14T00:20:33.558Z,1015.42
2017-05-14T00:21:34.233Z,1015.44
2017-05-14T00:22:34.899Z,1015.42
2017-05-14T00:23:35.587Z,1015.42
2017-05-14T00:24:36.273Z,1015.42
2017-05-14T00:25:36.961Z,1015.44
2017-05-14T00:26:37.641Z,1015.41
2017-05-14T00:27:38.320Z,1015.43
2017-05-14T00:28:38.995Z,1015.42
2017-05-14T00:29:39.652Z,1015.39
2017-05-14T00:30:40.325Z,1015.42
2017-05-14T00:31:41.008Z,1015.38
2017-05-14T00:32:41.673Z,1015.42
2017-05-14T00:33:42.341Z,1015.43
2017-05-14T00:34:43.021Z,1015.43
2017-05-14T00:35:43.682Z,1015.47
2017-05-14T00:36:44.359Z,1015.42
2017-05-14T00:37:45.028Z,1015.4
2017-05-14T00:38:45.698Z,1015.41
2017-05-14T00:39:46.389Z,1015.38
2017-05-14T00:40:47.056Z,1015.4
2017-05-14T00:41:47.725Z,1015.41
2017-05-14T00:42:48.399Z,1015.42
2017-05-14T00:43:49.088Z,1015.38
2017-05-14T00:44:49.788Z,1015.43
2017-05-14T00:45:50.509Z,1015.39
2017-05-14T00:46:51.184Z,1015.36
2017-05-14T00:47:51.851Z,1015.38
2017-05-14T00:48:52.525Z,1015.42
2017-05-14T00:49:53.232Z,1015.48
2017-05-14T00:50:53.917Z,1015.46
2017-05-14T00:51:54.597Z,1015.48
2017-05-14T00:52:55.271Z,1015.46
2017-05-14T00:53:55.948Z,1015.44
2017-05-14T00:54:56.618Z,1015.47
2017-05-14T00:55:57.295Z,1015.48
2017-05-14T00:56:57.958Z,1015.46
2017-05-14T00:57:58.628Z,1015.44
2017-05-14T00:58:59.314Z,1015.49
2017-05-14T00:59:59.987Z,1015.48
2017-05-14T01:01:00.693Z,1015.47
2017-05-14T01:02:01.369Z,1015.46
2017-05-14T01:03:02.043Z,1015.49
2017-05-14T01:04:02.716Z,1015.52
2017-05-14T01:05:03.388Z,1015.54
2017-05-14T01:06:04.060Z,1015.51
2017-05-14T01:07:04.727Z,1015.48
2017-05-14T01:08:05.406Z,1015.46
2017-05-14T01:09:06.087Z,1015.46
2017-05-14T01:10:06.774Z,1015.45
2017-05-14T01:11:07.464Z,1015.43
2017-05-14T01:12:11.107Z,1015.5
2017-05-14T01:13:11.780Z,1015.53
2017-05-14T01:14:12.458Z,1015.54
2017-05-14T01:15:13.141Z,1015.54
2017-05-14T01:16:13.810Z,1015.56
2017-05-14T01:17:14.476Z,1015.59
2017-05-14T01:18:15.144Z,1015.59
2017-05-14T01:19:15.816Z,1015.54
2017-05-14T01:20:16.489Z,1015.56
2017-05-14T01:21:17.153Z,1015.51
2017-05-14T01:22:17.843Z,1015.49
2017-05-14T01:23:18.505Z,1015.49
2017-05-14T01:24:19.176Z,1015.5
2017-05-14T01:25:19.848Z,1015.48
2017-05-14T01:26:20.545Z,1015.52
2017-05-14T01:27:21.227Z,1015.54
2017-05-14T01:28:21.926Z,1015.52
2017-05-14T01:29:22.598Z,1015.55
2017-05-14T01:30:23.266Z,1015.61
2017-05-14T01:31:23.931Z,1015.64
2017-05-14T01:32:24.616Z,1015.64
2017-05-14T01:33:25.290Z,1015.65
2017-05-14T01:34:25.972Z,1015.64
2017-05-14T01:35:26.634Z,1015.68
2017-05-14T01:36:27.322Z,1015.67
2017-05-14T01:37:28.021Z,1015.69
2017-05-14T01:38:28.697Z,1015.77
2017-05-14T01:39:29.368Z,1015.77
2017-05-14T01:40:30.035Z,1015.81
2017-05-14T01:41:30.710Z,1015.83
2017-05-14T01:42:31.380Z,1015.82
2017-05-14T01:43:32.085Z,1015.83
2017-05-14T01:44:32.773Z,1015.87
2017-05-14T01:45:33.452Z,1015.93
2017-05-14T01:46:34.121Z,1015.94
2017-05-14T01:47:34.793Z,1015.95
2017-05-14T01:48:35.495Z,1015.94
2017-05-14T01:49:36.173Z,1015.93
2017-05-14T01:50:36.867Z,1015.97
2017-05-14T01:51:37.539Z,1015.99
2017-05-14T01:52:38.248Z,1016.04
2017-05-14T01:53:38.941Z,1016.05
2017-05-14T01:54:39.605Z,1016.06
2017-05-14T01:55:40.287Z,1016.09
2017-05-14T01:56:40.956Z,1016.03
2017-05-14T01:57:41.634Z,1016.07
2017-05-14T01:58:42.297Z,1016.1
2017-05-14T01:59:42.979Z,1016.04
2017-05-14T02:00:43.651Z,1016.06
2017-05-14T02:01:44.318Z,1016.09
2017-05-14T02:02:45.046Z,1016.1
2017-05-14T02:03:45.818Z,1016.19
2017-05-14T02:04:46.491Z,1016.17
2017-05-14T02:05:47.209Z,1016.15
2017-05-14T02:06:47.940Z,1016.17
2017-05-14T02:07:48.655Z,1016.15
2017-05-14T02:08:49.331Z,1016.15
2017-05-14T02:09:50.016Z,1016.15
2017-05-14T02:10:50.726Z,1016.14
2017-05-14T02:11:51.405Z,1016.16
2017-05-14T02:12:52.077Z,1016.17
2017-05-14T02:13:52.743Z,1016.21
2017-05-14T02:14:53.419Z,1016.18
2017-05-14T02:15:54.084Z,1016.21
2017-05-14T02:16:54.760Z,1016.17
2017-05-14T02:17:55.423Z,1016.2
2017-05-14T02:18:56.106Z,1016.17
2017-05-14T02:19:56.766Z,1016.16
2017-05-14T02:20:57.458Z,1016.18
2017-05-14T02:21:58.138Z,1016.24
2017-05-14T02:22:58.838Z,1016.23
2017-05-14T02:23:59.526Z,1016.26
2017-05-14T02:25:00.217Z,1016.24
2017-05-14T02:26:00.921Z,1016.26
2017-05-14T02:27:01.595Z,1016.29
2017-05-14T02:28:02.261Z,1016.35
2017-05-14T02:29:02.930Z,1016.33
2017-05-14T02:30:03.607Z,1016.32
2017-05-14T02:31:04.290Z,1016.31
2017-05-14T02:32:04.968Z,1016.28
2017-05-14T02:33:05.659Z,1016.29
2017-05-14T02:34:06.333Z,1016.33
2017-05-14T02:35:07.010Z,1016.3
2017-05-14T02:36:07.676Z,1016.39
2017-05-14T02:37:08.398Z,1016.38
2017-05-14T02:38:09.077Z,1016.38
2017-05-14T02:39:09.744Z,1016.33
2017-05-14T02:40:10.415Z,1016.36
2017-05-14T02:41:11.124Z,1016.33
2017-05-14T02:42:11.796Z,1016.35
2017-05-14T02:43:12.507Z,1016.4
2017-05-14T02:44:13.173Z,1016.46
2017-05-14T02:45:13.839Z,1016.49
2017-05-14T02:46:14.535Z,1016.51
2017-05-14T02:47:15.207Z,1016.53
2017-05-14T02:48:15.877Z,1016.56
2017-05-14T02:49:16.576Z,1016.53
2017-05-14T02:50:17.240Z,1016.56
2017-05-14T02:51:17.917Z,1016.62
2017-05-14T02:52:18.599Z,1016.57
2017-05-14T02:53:19.262Z,1016.62
2017-05-14T02:54:19.925Z,1016.62
2017-05-14T02:55:20.634Z,1016.62
2017-05-14T02:56:21.315Z,1016.6
2017-05-14T02:57:21.998Z,1016.58
2017-05-14T02:58:22.674Z,1016.56
2017-05-14T02:59:23.376Z,1016.62
2017-05-14T03:00:24.053Z,1016.57
2017-05-14T03:01:24.720Z,1016.54
2017-05-14T03:02:25.411Z,1016.53
2017-05-14T03:03:26.086Z,1016.49
2017-05-14T03:04:26.769Z,1016.54
2017-05-14T03:05:27.446Z,1016.53
2017-05-14T03:06:28.113Z,1016.58
2017-05-14T03:07:28.817Z,1016.58
2017-05-14T03:08:29.506Z,1016.64
2017-05-14T03:09:30.186Z,1016.6
2017-05-14T03:10:30.879Z,1016.62
2017-05-14T03:11:31.569Z,1016.61
2017-05-14T03:12:32.255Z,1016.56
2017-05-14T03:13:32.930Z,1016.59
2017-05-14T03:14:33.636Z,1016.62
2017-05-14T03:15:34.315Z,1016.63
2017-05-14T03:16:34.989Z,1016.66
2017-05-14T03:17:35.678Z,1016.63
2017-05-14T03:18:36.370Z,1016.7
2017-05-14T03:19:37.059Z,1016.7
2017-05-14T03:20:37.733Z,1016.71
2017-05-14T03:21:38.397Z,1016.72
2017-05-14T03:22:39.066Z,1016.73
2017-05-14T03:23:39.743Z,1016.8
2017-05-14T03:24:40.422Z,1016.81
2017-05-14T03:25:41.104Z,1016.8
2017-05-14T03:26:41.806Z,1016.82
2017-05-14T03:27:42.518Z,1016.83
2017-05-14T03:28:43.240Z,1016.81
2017-05-14T03:29:43.928Z,1016.82
2017-05-14T03:30:44.608Z,1016.86
2017-05-14T03:31:45.329Z,1016.9
2017-05-14T03:32:45.991Z,1016.96
2017-05-14T03:33:46.668Z,1016.99
2017-05-14T03:34:47.354Z,1017.04
2017-05-14T03:35:48.070Z,1017.08
2017-05-14T03:36:48.800Z,1017.09
2017-05-14T03:37:49.495Z,1017.1
2017-05-14T03:38:50.186Z,1017.11
2017-05-14T03:39:50.891Z,1017.17
2017-05-14T03:40:51.582Z,1017.13
2017-05-14T03:41:52.250Z,1017.13
2017-05-14T03:42:52.926Z,1017.11
2017-05-14T03:43:53.600Z,1017.14
2017-05-14T03:44:54.285Z,1017.17
2017-05-14T03:45:54.952Z,1017.14
2017-05-14T03:46:55.629Z,1017.15
2017-05-14T03:47:56.360Z,1017.15
2017-05-14T03:48:57.041Z,1017.13
2017-05-14T03:49:57.710Z,1017.14
2017-05-14T03:50:58.408Z,1017.14
2017-05-14T03:51:59.082Z,1017.16
2017-05-14T03:52:59.761Z,1017.19
2017-05-14T03:54:00.433Z,1017.26
2017-05-14T03:55:01.149Z,1017.26
2017-05-14T03:56:01.822Z,1017.28
2017-05-14T03:57:02.493Z,1017.25
2017-05-14T03:58:03.173Z,1017.25
2017-05-14T03:59:03.844Z,1017.21
2017-05-14T04:00:04.521Z,1017.19
2017-05-14T04:01:05.191Z,1017.15
2017-05-14T04:02:05.857Z,1017.14
2017-05-14T04:03:06.539Z,1017.19
2017-05-14T04:04:07.225Z,1017.19
2017-05-14T04:05:07.923Z,1017.23
2017-05-14T04:06:08.600Z,1017.21
2017-05-14T04:07:09.270Z,1017.24
2017-05-14T04:08:09.935Z,1017.2
2017-05-14T04:09:10.608Z,1017.19
2017-05-14T04:10:11.285Z,1017.2
2017-05-14T04:11:11.990Z,1017.2
2017-05-14T04:12:12.676Z,1017.25
2017-05-14T04:13:13.361Z,1017.21
2017-05-14T04:14:14.035Z,1017.22
2017-05-14T04:15:14.705Z,1017.23
2017-05-14T04:16:15.367Z,1017.25
2017-05-14T04:17:16.054Z,1017.2
2017-05-14T04:18:16.762Z,1017.24
2017-05-14T04:19:17.443Z,1017.25
2017-05-14T04:20:18.115Z,1017.28
2017-05-14T04:21:18.791Z,1017.29
2017-05-14T04:22:19.474Z,1017.28
2017-05-14T04:23:20.153Z,1017.31
2017-05-14T04:24:20.826Z,1017.35
2017-05-14T04:25:21.515Z,1017.34
2017-05-14T04:26:22.195Z,1017.34
2017-05-14T04:27:22.876Z,1017.36
2017-05-14T04:28:23.555Z,1017.34
2017-05-14T04:29:24.242Z,1017.33
2017-05-14T04:30:24.905Z,1017.31
2017-05-14T04:31:25.602Z,1017.31
2017-05-14T04:32:26.269Z,1017.31
2017-05-14T04:33:26.949Z,1017.32
2017-05-14T04:34:27.625Z,1017.37
2017-05-14T04:35:28.314Z,1017.36
2017-05-14T04:36:29.016Z,1017.4
2017-05-14T04:37:29.690Z,1017.36
2017-05-14T04:38:30.387Z,1017.37
2017-05-14T04:39:31.072Z,1017.36
2017-05-14T04:40:31.756Z,1017.34
2017-05-14T04:41:32.433Z,1017.4
2017-05-14T04:42:33.113Z,1017.4
2017-05-14T04:43:33.807Z,1017.42
2017-05-14T04:44:34.509Z,1017.4
2017-05-14T04:45:35.185Z,1017.41
2017-05-14T04:46:35.890Z,1017.46
2017-05-14T04:47:36.561Z,1017.47
2017-05-14T04:48:37.241Z,1017.47
2017-05-14T04:49:37.916Z,1017.48
2017-05-14T04:50:38.631Z,1017.48
2017-05-14T04:51:39.308Z,1017.51
2017-05-14T04:52:39.983Z,1017.53
2017-05-14T04:53:40.685Z,1017.51
2017-05-14T04:54:41.373Z,1017.56
2017-05-14T04:55:42.048Z,1017.61
2017-05-14T04:56:42.712Z,1017.59
2017-05-14T04:57:43.392Z,1017.65
2017-05-14T04:58:44.074Z,1017.65
2017-05-14T04:59:44.770Z,1017.66
2017-05-14T05:00:45.488Z,1017.68
2017-05-14T05:01:46.217Z,1017.68
2017-05-14T05:02:46.896Z,1017.67
2017-05-14T05:03:47.574Z,1017.71
2017-05-14T05:04:48.264Z,1017.72
2017-05-14T05:05:48.971Z,1017.7
2017-05-14T05:06:49.644Z,1017.71
2017-05-14T05:07:50.315Z,1017.69
2017-05-14T05:08:51.003Z,1017.68
2017-05-14T05:09:51.666Z,1017.73
2017-05-14T05:10:52.354Z,1017.73
2017-05-14T05:11:53.031Z,1017.8
2017-05-14T05:12:53.722Z,1017.85
2017-05-14T05:13:54.408Z,1017.89
2017-05-14T05:14:55.130Z,1017.88
2017-05-14T05:15:55.810Z,1017.89
2017-05-14T05:16:56.508Z,1017.86
2017-05-14T05:17:57.180Z,1017.89
2017-05-14T05:18:57.866Z,1017.89
2017-05-14T05:19:58.540Z,1017.91
2017-05-14T05:20:59.212Z,1017.95
2017-05-14T05:21:59.880Z,1018.02
2017-05-14T05:23:00.551Z,1018
2017-05-14T05:24:01.224Z,1018.04
2017-05-14T05:25:01.902Z,1017.99
2017-05-14T05:26:02.583Z,1018.02
2017-05-14T05:27:03.269Z,1017.96
2017-05-14T05:28:03.972Z,1018.01
2017-05-14T05:29:04.640Z,1018.01
2017-05-14T05:30:05.323Z,1018.03
2017-05-14T05:31:06.036Z,1018.03
2017-05-14T05:32:06.719Z,1018.03
2017-05-14T05:33:07.387Z,1018.05
2017-05-14T05:34:08.065Z,1018.07
2017-05-14T05:35:08.761Z,1018.02
2017-05-14T05:36:09.448Z,1018.04
2017-05-14T05:37:10.122Z,1018.06
2017-05-14T05:38:10.792Z,1018.11
2017-05-14T05:39:11.472Z,1018.11
2017-05-14T05:40:12.149Z,1018.09
2017-05-14T05:41:12.821Z,1018.12
2017-05-14T05:42:13.489Z,1018.15
2017-05-14T05:43:14.166Z,1018.16
2017-05-14T05:44:14.860Z,1018.25
2017-05-14T05:45:15.549Z,1018.28
2017-05-14T05:46:16.232Z,1018.28
2017-05-14T05:47:16.948Z,1018.37
2017-05-14T05:48:17.619Z,1018.37
2017-05-14T05:49:18.344Z,1018.39
2017-05-14T05:50:19.030Z,1018.38
2017-05-14T05:51:19.713Z,1018.39
2017-05-14T05:52:20.390Z,1018.4
2017-05-14T05:53:21.063Z,1018.36
2017-05-14T05:54:21.751Z,1018.38
2017-05-14T05:55:22.434Z,1018.41
2017-05-14T05:56:23.122Z,1018.38
2017-05-14T05:57:23.795Z,1018.41
2017-05-14T05:58:24.468Z,1018.39
2017-05-14T05:59:25.141Z,1018.45
2017-05-14T06:00:25.849Z,1018.44
2017-05-14T06:01:26.519Z,1018.43
2017-05-14T06:02:27.199Z,1018.45
2017-05-14T06:03:27.874Z,1018.47
2017-05-14T06:04:28.576Z,1018.47
2017-05-14T06:05:29.262Z,1018.5
2017-05-14T06:06:29.937Z,1018.46
2017-05-14T06:07:30.637Z,1018.47
2017-05-14T06:08:31.328Z,1018.47
2017-05-14T06:09:32.043Z,1018.49
2017-05-14T06:10:32.731Z,1018.52
2017-05-14T06:11:33.422Z,1018.51
2017-05-14T06:12:34.115Z,1018.56
2017-05-14T06:13:34.833Z,1018.52
2017-05-14T06:14:35.541Z,1018.58
2017-05-14T06:15:36.231Z,1018.56
2017-05-14T06:16:36.902Z,1018.62
2017-05-14T06:17:37.582Z,1018.65
2017-05-14T06:18:38.352Z,1018.65
2017-05-14T06:19:39.069Z,1018.65
2017-05-14T06:20:39.760Z,1018.67
2017-05-14T06:21:40.450Z,1018.69
2017-05-14T06:22:41.146Z,1018.7
2017-05-14T06:23:41.848Z,1018.72
2017-05-14T06:24:42.635Z,1018.76
2017-05-14T06:25:43.580Z,1018.73
2017-05-14T06:26:44.262Z,1018.79
2017-05-14T06:27:44.950Z,1018.76
2017-05-14T06:28:45.671Z,1018.77
2017-05-14T06:29:46.368Z,1018.78
2017-05-14T06:30:47.062Z,1018.8
2017-05-14T06:31:47.787Z,1018.73
2017-05-14T06:32:48.438Z,1018.75
2017-05-14T06:33:49.132Z,1018.81
2017-05-14T06:34:49.870Z,1018.75
2017-05-14T06:35:50.569Z,1018.98
2017-05-14T06:36:51.282Z,1018.82
2017-05-14T06:37:51.954Z,1019.02
2017-05-14T06:38:52.806Z,1018.8
2017-05-14T06:39:53.555Z,1018.8
2017-05-14T06:40:54.253Z,1018.83
2017-05-14T06:41:54.952Z,1018.81
2017-05-14T06:42:55.618Z,1018.79
2017-05-14T06:43:56.299Z,1018.91
2017-05-14T06:44:56.966Z,1019.09
2017-05-14T06:45:57.643Z,1018.87
2017-05-14T06:46:58.343Z,1018.95
2017-05-14T06:47:59.067Z,1018.92
2017-05-14T06:48:59.755Z,1019.14
2017-05-14T06:50:00.453Z,1019.06
2017-05-14T06:51:01.158Z,1018.91
2017-05-14T06:52:01.835Z,1018.99
2017-05-14T06:53:02.573Z,1018.93
2017-05-14T06:54:03.274Z,1018.99
2017-05-14T06:55:03.986Z,1019.09
2017-05-14T06:56:04.667Z,1019.12
2017-05-14T06:57:05.380Z,1019.08
2017-05-14T06:58:06.058Z,1019.12
2017-05-14T06:59:06.756Z,1019.13
2017-05-14T07:00:07.459Z,1019.22
2017-05-14T07:01:08.166Z,1019.12
2017-05-14T07:02:08.905Z,1019.16
2017-05-14T07:03:09.616Z,1019.17
2017-05-14T07:04:10.391Z,1019.19
2017-05-14T07:05:11.122Z,1019.19
2017-05-14T07:06:11.804Z,1019.19
2017-05-14T07:07:12.490Z,1019.21
2017-05-14T07:08:13.237Z,1019.21
2017-05-14T07:09:13.910Z,1019.37
2017-05-14T07:10:14.600Z,1019.4
2017-05-14T07:11:15.307Z,1019.34
2017-05-14T07:12:16.000Z,1019.16
2017-05-14T07:13:16.703Z,1019.31
2017-05-14T07:14:17.391Z,1019.23
2017-05-14T07:15:18.062Z,1019.38
2017-05-14T07:16:18.816Z,1019.48
2017-05-14T07:17:19.502Z,1019.37
2017-05-14T07:18:20.192Z,1019.51
2017-05-14T07:19:20.897Z,1019.23
2017-05-14T07:20:21.595Z,1019.19
2017-05-14T07:21:22.310Z,1019.19
2017-05-14T07:22:23.009Z,1019.23
2017-05-14T07:23:23.693Z,1019.22
2017-05-14T07:24:24.430Z,1019.27
2017-05-14T07:25:25.130Z,1019.25
2017-05-14T07:26:25.808Z,1019.23
2017-05-14T07:27:26.531Z,1019.27
2017-05-14T07:28:27.213Z,1019.64
2017-05-14T07:29:27.956Z,1019.27
2017-05-14T07:30:28.659Z,1019.66
2017-05-14T07:31:29.333Z,1019.63
2017-05-14T07:32:30.023Z,1019.71
2017-05-14T07:33:30.716Z,1019.7
2017-05-14T07:34:31.398Z,1019.71
2017-05-14T07:35:32.104Z,1019.71
2017-05-14T07:36:32.816Z,1019.78
2017-05-14T07:37:33.522Z,1019.74
2017-05-14T07:38:34.203Z,1019.73
2017-05-14T07:39:34.901Z,1019.72
2017-05-14T07:40:35.604Z,1019.72
2017-05-14T07:41:36.308Z,1019.7
2017-05-14T07:42:36.995Z,1019.71
2017-05-14T07:43:37.742Z,1019.73
2017-05-14T07:44:38.463Z,1019.71
2017-05-14T07:45:39.159Z,1019.76
2017-05-14T07:46:39.861Z,1019.76
2017-05-14T07:47:40.589Z,1019.73
2017-05-14T07:48:41.287Z,1019.72
2017-05-14T07:49:42.059Z,1019.64
2017-05-14T07:50:42.756Z,1019.71
2017-05-14T07:51:43.456Z,1019.75
2017-05-14T07:52:44.248Z,1019.73
2017-05-14T07:53:44.968Z,1019.73
2017-05-14T07:54:45.679Z,1019.74
2017-05-14T07:55:46.428Z,1019.73
2017-05-14T07:56:47.173Z,1019.73
2017-05-14T07:57:47.877Z,1019.73
2017-05-14T07:58:48.557Z,1019.76
2017-05-14T07:59:49.317Z,1019.77
2017-05-14T08:00:50.069Z,1019.8
2017-05-14T08:01:50.811Z,1019.76
2017-05-14T08:02:51.517Z,1019.78
2017-05-14T08:03:52.235Z,1019.75
2017-05-14T08:04:52.936Z,1019.8
2017-05-14T08:05:53.694Z,1019.74
2017-05-14T08:06:54.427Z,1019.78
2017-05-14T08:07:55.130Z,1019.76
2017-05-14T08:08:55.873Z,1019.78
2017-05-14T08:09:56.600Z,1019.77
2017-05-14T08:10:57.331Z,1019.81
2017-05-14T08:11:58.051Z,1019.8
2017-05-14T08:12:58.746Z,1019.82
2017-05-14T08:13:59.449Z,1019.83
2017-05-14T08:15:00.166Z,1019.8
2017-05-14T08:16:00.886Z,1019.78
2017-05-14T08:17:01.583Z,1019.76
2017-05-14T08:18:02.312Z,1019.78
2017-05-14T08:19:03.007Z,1019.82
2017-05-14T08:20:03.738Z,1019.81
2017-05-14T08:21:04.482Z,1019.82
2017-05-14T08:22:05.184Z,1019.82
2017-05-14T08:23:05.910Z,1019.85
2017-05-14T08:24:06.615Z,1019.86
2017-05-14T08:25:07.357Z,1019.85
2017-05-14T08:26:08.065Z,1019.88
2017-05-14T08:27:08.771Z,1019.84
2017-05-14T08:28:09.475Z,1019.9
2017-05-14T08:29:10.204Z,1019.88
2017-05-14T08:30:10.916Z,1019.86
2017-05-14T08:31:11.648Z,1019.89
2017-05-14T08:32:12.356Z,1019.87
2017-05-14T08:33:13.103Z,1019.89
2017-05-14T08:34:13.815Z,1019.94
2017-05-14T08:35:14.531Z,1019.96
2017-05-14T08:36:15.262Z,1019.98
2017-05-14T08:37:15.963Z,1019.99
2017-05-14T08:38:16.726Z,1019.99
2017-05-14T08:39:17.410Z,1019.96
2017-05-14T08:40:18.122Z,1019.96
2017-05-14T08:41:18.864Z,1019.95
2017-05-14T08:42:19.593Z,1019.93
2017-05-14T08:43:20.360Z,1019.95
2017-05-14T08:44:21.054Z,1019.96
2017-05-14T08:45:21.802Z,1019.95
2017-05-14T08:46:22.513Z,1019.94
2017-05-14T08:47:23.214Z,1019.98
2017-05-14T08:48:23.919Z,1019.99
2017-05-14T08:49:24.615Z,1019.99
2017-05-14T08:50:25.341Z,1020
2017-05-14T08:51:26.047Z,1019.97
2017-05-14T08:52:26.784Z,1020.05
2017-05-14T08:53:27.527Z,1020.05
2017-05-14T08:54:28.263Z,1020.04
2017-05-14T08:55:28.996Z,1020.08
2017-05-14T08:56:29.736Z,1020.06
2017-05-14T08:57:30.436Z,1020.02
2017-05-14T08:58:31.142Z,1020.05
2017-05-14T08:59:31.850Z,1020.05
2017-05-14T09:00:32.557Z,1020.07
2017-05-14T09:01:33.303Z,1020.02
2017-05-14T09:02:34.002Z,1020
2017-05-14T09:03:34.725Z,1020.03
2017-05-14T09:04:35.471Z,1020.08
2017-05-14T09:05:36.192Z,1020.04
2017-05-14T09:06:36.917Z,1020.05
2017-05-14T09:07:37.659Z,1020.07
2017-05-14T09:08:38.360Z,1020.1
2017-05-14T09:09:39.071Z,1020.03
2017-05-14T09:10:39.793Z,1020.06
2017-05-14T09:11:40.528Z,1020.07
2017-05-14T09:12:41.252Z,1020.02
2017-05-14T09:13:41.935Z,1020.07
2017-05-14T09:14:42.713Z,1020.05
2017-05-14T09:15:43.424Z,1020.06
2017-05-14T09:16:44.238Z,1020.1
2017-05-14T09:17:44.985Z,1020.11
2017-05-14T09:18:45.681Z,1020.16
2017-05-14T09:19:46.379Z,1020.17
2017-05-14T09:20:47.099Z,1020.16
2017-05-14T09:21:47.843Z,1020.19
2017-05-14T09:22:48.545Z,1020.21
2017-05-14T09:23:49.254Z,1020.2
2017-05-14T09:24:50.012Z,1020.22
2017-05-14T09:25:50.745Z,1020.22
2017-05-14T09:26:51.484Z,1020.18
2017-05-14T09:27:52.188Z,1020.24
2017-05-14T09:28:52.944Z,1020.22
2017-05-14T09:29:53.660Z,1020.25
2017-05-14T09:30:54.350Z,1020.25
2017-05-14T09:31:55.056Z,1020.23
2017-05-14T09:32:55.760Z,1020.23
2017-05-14T09:33:56.487Z,1020.21
2017-05-14T09:34:57.190Z,1020.2
2017-05-14T09:35:57.895Z,1020.25
2017-05-14T09:36:58.636Z,1020.29
2017-05-14T09:37:59.358Z,1020.24
2017-05-14T09:39:00.071Z,1020.25
2017-05-14T09:40:00.798Z,1020.25
2017-05-14T09:41:01.518Z,1020.2
2017-05-14T09:42:02.237Z,1020.25
2017-05-14T09:43:02.970Z,1020.25
2017-05-14T09:44:03.704Z,1020.27
2017-05-14T09:45:04.422Z,1020.27
2017-05-14T09:46:05.156Z,1020.27
2017-05-14T09:47:05.885Z,1020.22
2017-05-14T09:48:06.598Z,1020.2
2017-05-14T09:49:07.346Z,1020.24
2017-05-14T09:50:08.068Z,1020.21
2017-05-14T09:51:08.798Z,1020.24
2017-05-14T09:52:09.502Z,1020.2
2017-05-14T09:53:10.206Z,1020.21
2017-05-14T09:54:10.914Z,1020.17
2017-05-14T09:55:11.615Z,1020.19
2017-05-14T09:56:12.322Z,1020.23
2017-05-14T09:57:13.037Z,1020.27
2017-05-14T09:58:13.735Z,1020.25
2017-05-14T09:59:14.430Z,1020.24
2017-05-14T10:00:15.168Z,1020.24
2017-05-14T10:01:15.892Z,1020.2
2017-05-14T10:02:16.619Z,1020.2
2017-05-14T10:03:17.296Z,1020.24
2017-05-14T10:04:17.974Z,1020.24
2017-05-14T10:05:18.683Z,1020.22
2017-05-14T10:06:19.365Z,1020.19
2017-05-14T10:07:20.042Z,1020.19
2017-05-14T10:08:20.745Z,1020.26
2017-05-14T10:09:21.441Z,1020.22
2017-05-14T10:10:22.124Z,1020.23
2017-05-14T10:11:22.820Z,1020.24
2017-05-14T10:12:23.505Z,1020.18
2017-05-14T10:13:24.199Z,1020.23
2017-05-14T10:14:24.922Z,1020.24
2017-05-14T10:15:25.655Z,1020.22
2017-05-14T10:16:26.386Z,1020.23
2017-05-14T10:17:27.086Z,1020.22
2017-05-14T10:18:27.799Z,1020.19
2017-05-14T10:19:28.494Z,1020.21
2017-05-14T10:20:29.221Z,1020.26
2017-05-14T10:21:29.924Z,1020.25
2017-05-14T10:22:30.610Z,1020.28
2017-05-14T10:23:31.345Z,1020.3
2017-05-14T10:24:32.070Z,1020.31
2017-05-14T10:25:32.768Z,1020.34
2017-05-14T10:26:33.504Z,1020.29
2017-05-14T10:27:34.241Z,1020.33
2017-05-14T10:28:34.937Z,1020.35
2017-05-14T10:29:35.684Z,1020.32
2017-05-14T10:30:36.401Z,1020.29
2017-05-14T10:31:37.103Z,1020.27
2017-05-14T10:32:37.803Z,1020.3
2017-05-14T10:33:38.540Z,1020.32
2017-05-14T10:34:39.256Z,1020.26
2017-05-14T10:35:40.023Z,1020.32
2017-05-14T10:36:40.745Z,1020.32
2017-05-14T10:37:41.473Z,1020.28
2017-05-14T10:38:42.167Z,1020.3
2017-05-14T10:39:42.886Z,1020.29
2017-05-14T10:40:43.603Z,1020.32
2017-05-14T10:41:44.318Z,1020.37
2017-05-14T10:42:45.033Z,1020.35
2017-05-14T10:43:45.773Z,1020.35
2017-05-14T10:44:46.541Z,1020.35
2017-05-14T10:45:47.254Z,1020.35
2017-05-14T10:46:47.933Z,1020.33
2017-05-14T10:47:48.611Z,1020.37
2017-05-14T10:48:49.300Z,1020.39
2017-05-14T10:49:49.989Z,1020.4
2017-05-14T10:50:50.737Z,1020.47
2017-05-14T10:51:51.420Z,1020.44
2017-05-14T10:52:52.114Z,1020.49
2017-05-14T10:53:52.840Z,1020.46
2017-05-14T10:54:53.515Z,1020.51
2017-05-14T10:55:54.194Z,1020.46
2017-05-14T10:56:54.921Z,1020.43
2017-05-14T10:57:55.633Z,1020.43
2017-05-14T10:58:56.356Z,1020.4
2017-05-14T10:59:57.038Z,1020.39
2017-05-14T11:00:57.727Z,1020.44
2017-05-14T11:01:58.471Z,1020.45
2017-05-14T11:02:59.177Z,1020.45
2017-05-14T11:03:59.920Z,1020.47
2017-05-14T11:05:00.670Z,1020.49
2017-05-14T11:06:01.368Z,1020.43
2017-05-14T11:07:02.045Z,1020.42
2017-05-14T11:08:02.766Z,1020.44
2017-05-14T11:09:03.466Z,1020.49
2017-05-14T11:10:04.311Z,1020.5
2017-05-14T11:11:05.809Z,1020.46
2017-05-14T11:12:06.493Z,1020.48
2017-05-14T11:13:08.908Z,1020.45
2017-05-14T11:14:09.866Z,1020.41
2017-05-14T11:15:11.420Z,1020.41
2017-05-14T11:16:12.254Z,1020.46
2017-05-14T11:17:28.112Z,1020.51
2017-05-14T11:18:30.999Z,1020.52
2017-05-14T11:19:30.496Z,1020.5
2017-05-14T11:20:31.166Z,1020.47
2017-05-14T11:21:31.860Z,1020.45
2017-05-14T11:22:32.567Z,1020.5
2017-05-14T11:23:33.274Z,1020.52
2017-05-14T11:24:33.957Z,1020.5
2017-05-14T11:25:34.922Z,1020.52
2017-05-14T11:26:35.626Z,1020.51
2017-05-14T11:27:36.300Z,1020.52
2017-05-14T11:28:36.994Z,1020.5
2017-05-14T11:29:37.776Z,1020.53
2017-05-14T11:30:38.460Z,1020.54
2017-05-14T11:31:39.141Z,1020.47
2017-05-14T11:32:39.939Z,1020.48
2017-05-14T11:33:40.608Z,1020.5
2017-05-14T11:34:41.290Z,1020.64
2017-05-14T11:35:42.009Z,1020.55
2017-05-14T11:36:42.682Z,1020.59
2017-05-14T11:37:43.403Z,1020.61
2017-05-14T11:38:44.095Z,1020.63
2017-05-14T11:39:44.797Z,1020.64
2017-05-14T11:40:45.777Z,1020.64
2017-05-14T11:41:46.458Z,1020.65
2017-05-14T11:42:47.170Z,1020.65
2017-05-14T11:43:47.858Z,1020.62
2017-05-14T11:44:48.796Z,1020.63
2017-05-14T11:45:49.752Z,1020.58
2017-05-14T11:46:50.680Z,1020.63
2017-05-14T11:47:51.364Z,1020.6
2017-05-14T11:48:52.090Z,1020.6
2017-05-14T11:49:52.785Z,1020.64
2017-05-14T11:50:53.489Z,1020.6
2017-05-14T11:51:54.201Z,1020.67
2017-05-14T11:52:54.878Z,1020.72
2017-05-14T11:53:55.623Z,1020.67
2017-05-14T11:54:56.346Z,1020.62
2017-05-14T11:55:57.139Z,1020.61
2017-05-14T11:56:57.845Z,1020.64
2017-05-14T11:57:58.534Z,1020.57
2017-05-14T11:58:59.849Z,1020.68
2017-05-14T12:00:00.772Z,1020.63
2017-05-14T12:01:01.458Z,1020.63
2017-05-14T12:02:02.185Z,1020.62
2017-05-14T12:03:02.884Z,1020.6
2017-05-14T12:04:03.580Z,1020.52
2017-05-14T12:05:04.271Z,1020.55
2017-05-14T12:06:05.248Z,1020.56
2017-05-14T12:07:06.090Z,1020.61
2017-05-14T12:08:06.808Z,1020.64
2017-05-14T12:09:07.502Z,1020.61
2017-05-14T12:10:08.218Z,1020.61
2017-05-14T12:11:08.962Z,1020.6
2017-05-14T12:12:09.653Z,1020.67
2017-05-14T12:13:10.341Z,1020.63
2017-05-14T12:14:11.051Z,1020.68
2017-05-14T12:15:11.776Z,1020.64
2017-05-14T12:16:12.484Z,1020.66
2017-05-14T12:17:16.127Z,1020.61